createdAt,value
2018-02-08T00:01:17.051Z,-1.00
2018-02-08T00:03:43.400Z,-1.00
2018-02-08T00:06:09.629Z,-1.00
2018-02-08T00:08:36.612Z,-1.00
2018-02-08T00:11:02.871Z,-1.00
2018-02-08T00:13:29.119Z,-0.90
2018-02-08T00:15:55.366Z,-0.90
2018-02-08T00:18:22.371Z,-0.90
2018-02-08T00:20:48.629Z,-0.90
2018-02-08T00:23:14.875Z,-0.80
2018-02-08T00:25:41.123Z,-0.70
2018-02-08T00:28:07.390Z,-0.80
2018-02-08T00:30:33.635Z,-0.70
2018-02-08T00:32:59.899Z,-0.60
2018-02-08T00:35:26.902Z,-0.50
2018-02-08T00:37:53.152Z,-0.50
2018-02-08T00:40:19.386Z,-0.40
2018-02-08T00:42:45.624Z,-0.60
2018-02-08T00:45:12.604Z,-0.60
2018-02-08T00:47:38.872Z,-0.70
2018-02-08T00:50:05.286Z,-0.50
2018-02-08T00:52:31.532Z,-0.50
2018-02-08T00:54:57.798Z,-0.40
2018-02-08T00:57:24.805Z,-0.30
2018-02-08T00:59:51.034Z,-0.30
2018-02-08T01:02:17.276Z,-0.20
2018-02-08T01:04:43.496Z,-0.30
2018-02-08T01:07:09.950Z,-0.40
2018-02-08T01:09:36.176Z,-0.50
2018-02-08T01:12:02.457Z,-0.40
2018-02-08T01:14:28.699Z,-0.60
2018-02-08T01:16:54.974Z,-0.60
2018-02-08T01:19:22.003Z,-0.50
2018-02-08T01:21:48.249Z,-0.50
2018-02-08T01:24:14.478Z,-0.60
2018-02-08T01:26:40.699Z,-0.50
2018-02-08T01:29:06.927Z,-0.40
2018-02-08T01:31:33.163Z,-0.50
2018-02-08T01:34:00.149Z,-0.50
2018-02-08T01:36:26.406Z,-0.50
2018-02-08T01:38:52.639Z,-0.50
2018-02-08T01:41:18.865Z,-0.60
2018-02-08T01:43:45.091Z,-0.70
2018-02-08T01:46:11.348Z,-0.70
2018-02-08T01:48:38.351Z,-0.80
2018-02-08T01:51:04.614Z,-0.80
2018-02-08T01:53:30.851Z,-0.80
2018-02-08T01:55:57.082Z,-0.90
2018-02-08T01:58:23.344Z,-0.90
2018-02-08T02:00:49.572Z,-0.90
2018-02-08T02:03:15.804Z,-0.90
2018-02-08T02:05:42.045Z,-0.90
2018-02-08T02:08:08.278Z,-0.90
2018-02-08T02:10:35.352Z,-0.80
2018-02-08T02:13:01.595Z,-0.70
2018-02-08T02:15:27.886Z,-0.70
2018-02-08T02:17:54.123Z,-0.70
2018-02-08T02:20:20.431Z,-0.80
2018-02-08T02:22:46.681Z,-0.80
2018-02-08T02:25:12.901Z,-0.90
2018-02-08T02:27:39.136Z,-1.00
2018-02-08T02:30:05.366Z,-0.90
2018-02-08T02:32:31.617Z,-0.90
2018-02-08T02:34:57.835Z,-0.90
2018-02-08T02:37:24.060Z,-0.80
2018-02-08T02:39:50.341Z,-0.90
2018-02-08T02:42:17.343Z,-1.00
2018-02-08T02:44:43.562Z,-1.00
2018-02-08T02:47:09.809Z,-0.90
2018-02-08T02:49:36.094Z,-0.90
2018-02-08T02:52:02.364Z,-0.90
2018-02-08T02:54:28.616Z,-0.90
2018-02-08T02:56:54.854Z,-0.80
2018-02-08T02:59:21.840Z,-0.70
2018-02-08T03:01:48.100Z,-0.70
2018-02-08T03:04:14.366Z,-0.70
2018-02-08T03:06:40.598Z,-0.80
2018-02-08T03:09:07.572Z,-0.80
2018-02-08T03:11:33.785Z,-0.80
2018-02-08T03:14:00.758Z,-0.70
2018-02-08T03:16:26.996Z,-0.70
2018-02-08T03:18:53.254Z,-0.70
2018-02-08T03:21:19.498Z,-0.70
2018-02-08T03:23:45.727Z,-0.70
2018-02-08T03:26:12.649Z,-0.80
2018-02-08T03:28:38.888Z,-0.80
2018-02-08T03:31:09.062Z,-0.70
2018-02-08T03:33:35.280Z,-0.80
2018-02-08T03:36:01.514Z,-0.70
2018-02-08T03:38:27.794Z,-0.80
2018-02-08T03:40:54.018Z,-0.80
2018-02-08T03:43:20.245Z,-0.90
2018-02-08T03:45:46.705Z,-0.90
2018-02-08T03:48:12.952Z,-0.80
2018-02-08T03:50:39.925Z,-0.70
2018-02-08T03:53:06.188Z,-0.70
2018-02-08T03:55:32.440Z,-0.70
2018-02-08T03:57:58.671Z,-0.70
2018-02-08T04:00:25.674Z,-0.70
2018-02-08T04:02:51.925Z,-0.70
2018-02-08T04:05:18.174Z,-0.80
2018-02-08T04:07:44.407Z,-0.80
2018-02-08T04:10:11.370Z,-0.70
2018-02-08T04:12:37.617Z,-0.70
2018-02-08T04:15:03.879Z,-0.70
2018-02-08T04:17:30.115Z,-0.80
2018-02-08T04:19:56.338Z,-0.70
2018-02-08T04:22:22.587Z,-0.70
2018-02-08T04:24:48.855Z,-0.60
2018-02-08T04:27:15.091Z,-0.70
2018-02-08T04:29:41.339Z,-0.60
2018-02-08T04:32:07.611Z,-0.60
2018-02-08T04:34:33.862Z,-0.60
2018-02-08T04:37:00.215Z,-0.60
2018-02-08T04:39:45.311Z,-0.70
2018-02-08T04:42:30.083Z,-0.70
2018-02-08T04:45:15.006Z,-0.80
2018-02-08T04:47:57.045Z,-0.80
2018-02-08T04:50:23.279Z,-0.80
2018-02-08T04:52:49.504Z,-0.80
2018-02-08T04:55:15.743Z,-0.80
2018-02-08T04:57:41.963Z,-0.90
2018-02-08T05:00:08.203Z,-0.80
2018-02-08T05:02:34.445Z,-0.80
2018-02-08T05:05:00.655Z,-0.90
2018-02-08T05:07:26.929Z,-0.80
2018-02-08T05:09:53.239Z,-0.70
2018-02-08T05:12:20.207Z,-0.60
2018-02-08T05:14:46.464Z,-0.60
2018-02-08T05:17:12.692Z,-0.70
2018-02-08T05:19:38.944Z,-0.70
2018-02-08T05:22:05.196Z,-0.80
2018-02-08T05:24:31.431Z,-0.70
2018-02-08T05:26:58.436Z,-0.50
2018-02-08T05:29:24.675Z,-0.50
2018-02-08T05:31:50.892Z,-0.50
2018-02-08T05:34:17.124Z,-0.40
2018-02-08T05:36:43.367Z,-0.50
2018-02-08T05:39:09.627Z,-0.30
2018-02-08T05:41:36.616Z,-0.30
2018-02-08T05:44:02.850Z,-0.30
2018-02-08T05:46:29.120Z,-0.30
2018-02-08T05:48:55.362Z,-0.20
2018-02-08T05:51:22.362Z,-0.50
2018-02-08T05:53:48.588Z,-0.50
2018-02-08T05:56:14.848Z,-0.50
2018-02-08T05:58:41.076Z,-0.50
2018-02-08T06:01:07.337Z,-0.60
2018-02-08T06:03:34.323Z,-0.60
2018-02-08T06:06:00.557Z,-0.70
2018-02-08T06:08:26.789Z,-0.60
2018-02-08T06:10:53.041Z,-0.60
2018-02-08T06:13:19.342Z,-0.60
2018-02-08T06:15:45.609Z,-0.60
2018-02-08T06:18:11.867Z,-0.50
2018-02-08T06:20:38.111Z,-0.50
2018-02-08T06:23:04.360Z,-0.50
2018-02-08T06:25:30.669Z,-0.40
2018-02-08T06:27:57.015Z,-0.40
2018-02-08T06:30:23.287Z,-0.40
2018-02-08T06:32:49.493Z,-0.40
2018-02-08T06:35:18.068Z,-0.40
2018-02-08T06:37:44.315Z,-0.40
2018-02-08T06:40:10.609Z,-0.30
2018-02-08T06:42:36.840Z,-0.30
2018-02-08T06:45:03.068Z,-0.30
2018-02-08T06:47:29.299Z,-0.20
2018-02-08T06:49:55.532Z,-0.20
2018-02-08T06:52:21.784Z,-0.30
2018-02-08T06:54:48.016Z,-0.30
2018-02-08T06:57:14.254Z,-0.30
2018-02-08T06:59:40.532Z,-0.40
2018-02-08T07:02:06.763Z,-0.40
2018-02-08T07:04:33.038Z,-0.30
2018-02-08T07:07:00.022Z,-0.20
2018-02-08T07:09:26.270Z,-0.20
2018-02-08T07:11:52.560Z,-0.10
2018-02-08T07:14:18.833Z,-0.10
2018-02-08T07:16:45.055Z,-0.10
2018-02-08T07:19:11.326Z,0.10
2018-02-08T07:21:37.602Z,0.10
2018-02-08T07:24:04.655Z,0.10
2018-02-08T07:26:30.951Z,0.10
2018-02-08T07:28:57.233Z,0.20
2018-02-08T07:31:23.463Z,0.20
2018-02-08T07:33:49.750Z,0.30
2018-02-08T07:36:16.026Z,0.30
2018-02-08T07:38:42.291Z,0.30
2018-02-08T07:41:08.570Z,0.40
2018-02-08T07:43:34.846Z,0.40
2018-02-08T07:46:01.113Z,0.30
2018-02-08T07:48:28.116Z,0.30
2018-02-08T07:50:54.405Z,0.30
2018-02-08T07:53:21.425Z,0.30
2018-02-08T07:55:48.428Z,0.40
2018-02-08T07:58:14.670Z,0.30
2018-02-08T08:00:40.928Z,0.40
2018-02-08T08:03:07.170Z,0.40
2018-02-08T08:05:34.160Z,0.50
2018-02-08T08:08:00.452Z,0.50
2018-02-08T08:10:27.496Z,0.60
2018-02-08T08:12:54.549Z,0.70
2018-02-08T08:15:21.639Z,0.70
2018-02-08T08:17:47.929Z,0.70
2018-02-08T08:20:14.983Z,0.70
2018-02-08T08:22:41.271Z,0.70
2018-02-08T08:25:07.564Z,0.80
2018-02-08T08:27:33.866Z,0.80
2018-02-08T08:30:00.872Z,1.00
2018-02-08T08:32:28.289Z,0.90
2018-02-08T08:34:54.561Z,0.90
2018-02-08T08:37:20.882Z,1.10
2018-02-08T08:39:47.212Z,0.90
2018-02-08T08:42:14.322Z,1.20
2018-02-08T08:44:40.872Z,1.10
2018-02-08T08:47:07.338Z,1.00
2018-02-08T08:49:33.917Z,1.00
2018-02-08T08:52:00.969Z,0.90
2018-02-08T08:54:27.277Z,0.90
2018-02-08T08:56:54.273Z,1.20
2018-02-08T08:59:20.647Z,1.10
2018-02-08T09:01:46.976Z,1.10
2018-02-08T09:04:13.308Z,1.20
2018-02-08T09:06:39.589Z,1.30
2018-02-08T09:09:05.832Z,1.40
2018-02-08T09:11:32.168Z,1.30
2018-02-08T09:13:58.432Z,1.10
2018-02-08T09:16:24.721Z,1.40
2018-02-08T09:18:50.953Z,1.40
2018-02-08T09:21:17.204Z,1.50
2018-02-08T09:23:43.532Z,1.50
2018-02-08T09:26:09.936Z,1.60
2018-02-08T09:28:36.230Z,1.70
2018-02-08T09:31:03.276Z,2.00
2018-02-08T09:33:30.366Z,2.00
2018-02-08T09:35:57.372Z,2.20
2018-02-08T09:38:24.375Z,1.90
2018-02-08T09:40:50.644Z,1.80
2018-02-08T09:43:16.895Z,2.00
2018-02-08T09:45:44.020Z,2.10
2018-02-08T09:48:10.265Z,2.10
2018-02-08T09:50:36.509Z,2.10
2018-02-08T09:53:02.761Z,2.00
2018-02-08T09:55:29.011Z,2.20
2018-02-08T09:57:55.295Z,2.50
2018-02-08T10:00:21.583Z,2.60
2018-02-08T10:02:47.872Z,2.60
2018-02-08T10:05:14.299Z,2.50
2018-02-08T10:07:40.554Z,2.50
2018-02-08T10:10:06.831Z,2.40
2018-02-08T10:12:33.122Z,2.50
2018-02-08T10:14:59.355Z,2.60
2018-02-08T10:17:25.646Z,2.40
2018-02-08T10:19:51.886Z,2.60
2018-02-08T10:22:18.211Z,2.60
2018-02-08T10:24:44.512Z,2.60
2018-02-08T10:27:11.484Z,2.80
2018-02-08T10:29:37.718Z,2.80
2018-02-08T10:32:04.018Z,2.80
2018-02-08T10:34:31.040Z,2.80
2018-02-08T10:36:57.496Z,2.70
2018-02-08T10:39:24.484Z,3.10
2018-02-08T10:41:50.772Z,3.10
2018-02-08T10:44:17.775Z,3.00
2018-02-08T10:46:44.035Z,3.00
2018-02-08T10:49:11.055Z,3.20
2018-02-08T10:51:37.361Z,3.20
2018-02-08T10:54:03.588Z,3.10
2018-02-08T10:56:29.847Z,3.40
2018-02-08T10:58:56.107Z,3.50
2018-02-08T11:01:22.367Z,3.40
2018-02-08T11:03:48.635Z,3.40
2018-02-08T11:06:14.889Z,3.10
2018-02-08T11:08:41.135Z,3.00
2018-02-08T11:11:08.145Z,3.00
2018-02-08T11:13:34.411Z,3.00
2018-02-08T11:16:01.384Z,3.00
2018-02-08T11:18:27.671Z,3.00
2018-02-08T11:20:53.916Z,3.00
2018-02-08T11:23:20.886Z,2.70
2018-02-08T11:25:47.154Z,2.70
2018-02-08T11:28:13.436Z,2.70
2018-02-08T11:30:40.452Z,2.60
2018-02-08T11:33:06.737Z,2.50
2018-02-08T11:35:33.026Z,2.50
2018-02-08T11:38:00.161Z,2.70
2018-02-08T11:40:27.141Z,2.80
2018-02-08T11:42:53.428Z,2.70
2018-02-08T11:45:19.991Z,2.70
2018-02-08T11:47:46.999Z,2.50
2018-02-08T11:50:13.245Z,2.50
2018-02-08T11:52:39.545Z,2.70
2018-02-08T11:55:05.844Z,2.80
2018-02-08T11:57:32.903Z,2.80
2018-02-08T11:59:59.137Z,2.80
2018-02-08T12:02:25.406Z,2.80
2018-02-08T12:04:51.676Z,3.10
2018-02-08T12:07:18.688Z,3.30
2018-02-08T12:09:44.968Z,3.30
2018-02-08T12:12:11.264Z,3.30
2018-02-08T12:14:38.304Z,2.50
2018-02-08T12:17:05.354Z,2.50
2018-02-08T12:19:31.598Z,2.80
2018-02-08T12:21:58.665Z,3.10
2018-02-08T12:24:25.668Z,2.90
2018-02-08T12:26:51.926Z,2.90
2018-02-08T12:29:18.927Z,3.00
2018-02-08T12:31:45.169Z,3.00
2018-02-08T12:34:11.471Z,2.80
2018-02-08T12:36:37.728Z,2.30
2018-02-08T12:39:03.972Z,1.90
2018-02-08T12:41:30.212Z,2.40
2018-02-08T12:43:57.242Z,2.90
2018-02-08T12:46:23.531Z,2.90
2018-02-08T12:48:49.777Z,3.00
2018-02-08T12:51:16.145Z,3.00
2018-02-08T12:53:42.375Z,3.10
2018-02-08T12:56:08.630Z,3.10
2018-02-08T12:58:34.905Z,3.20
2018-02-08T13:01:01.192Z,2.90
2018-02-08T13:03:28.216Z,2.70
2018-02-08T13:05:54.502Z,2.60
2018-02-08T13:08:20.808Z,2.70
2018-02-08T13:10:47.148Z,2.70
2018-02-08T13:13:13.420Z,2.60
2018-02-08T13:15:39.681Z,2.70
2018-02-08T13:18:06.751Z,2.40
2018-02-08T13:20:33.019Z,2.40
2018-02-08T13:22:59.344Z,2.20
2018-02-08T13:25:25.647Z,2.00
2018-02-08T13:27:52.015Z,2.20
2018-02-08T13:30:18.449Z,2.40
2018-02-08T13:32:44.792Z,2.60
2018-02-08T13:35:11.056Z,2.60
2018-02-08T13:37:38.078Z,2.80
2018-02-08T13:40:04.377Z,2.70
2018-02-08T13:42:30.636Z,2.50
2018-02-08T13:44:56.933Z,2.00
2018-02-08T13:47:29.319Z,1.90
2018-02-08T13:50:01.678Z,1.90
2018-02-08T13:52:34.082Z,2.10
2018-02-08T13:55:00.421Z,2.20
2018-02-08T13:57:29.585Z,2.30
2018-02-08T14:02:56.508Z,2.20
2018-02-08T14:05:22.749Z,2.30
2018-02-08T14:07:49.068Z,2.20
2018-02-08T14:10:15.330Z,2.20
2018-02-08T14:12:41.700Z,1.90
2018-02-08T14:15:07.966Z,1.80
2018-02-08T14:17:34.264Z,1.80
2018-02-08T14:20:00.542Z,1.60
2018-02-08T14:22:26.831Z,1.40
2018-02-08T14:24:53.075Z,1.30
2018-02-08T14:27:20.118Z,1.50
2018-02-08T14:29:47.129Z,1.60
2018-02-08T14:32:13.439Z,1.60
2018-02-08T14:34:40.396Z,1.40
2018-02-08T14:37:06.704Z,1.60
2018-02-08T14:39:32.962Z,1.20
2018-02-08T14:41:59.208Z,1.30
2018-02-08T14:44:25.495Z,1.40
2018-02-08T14:46:51.780Z,1.40
2018-02-08T14:49:18.084Z,1.30
2018-02-08T14:51:44.340Z,1.20
2018-02-08T14:54:10.580Z,1.10
2018-02-08T14:56:37.624Z,0.80
2018-02-08T14:59:04.646Z,0.70
2018-02-08T15:01:30.924Z,0.70
2018-02-08T15:03:57.204Z,0.60
2018-02-08T15:06:23.502Z,0.70
2018-02-08T15:08:49.767Z,0.80
2018-02-08T15:11:16.022Z,0.90
2018-02-08T15:13:43.025Z,1.00
2018-02-08T15:16:09.350Z,0.90
2018-02-08T15:18:35.636Z,1.20
2018-02-08T15:21:02.616Z,1.10
2018-02-08T15:23:28.890Z,1.10
2018-02-08T15:25:55.129Z,1.00
2018-02-08T15:28:21.379Z,1.00
2018-02-08T15:30:48.377Z,0.80
2018-02-08T15:33:14.652Z,0.80
2018-02-08T15:35:41.649Z,0.90
2018-02-08T15:38:07.896Z,0.90
2018-02-08T15:40:34.144Z,0.90
2018-02-08T15:43:01.210Z,1.00
2018-02-08T15:45:27.462Z,1.10
2018-02-08T15:47:53.743Z,1.20
2018-02-08T15:50:20.052Z,1.20
2018-02-08T15:52:46.300Z,1.20
2018-02-08T15:55:12.628Z,1.20
2018-02-08T15:57:38.911Z,1.30
2018-02-08T16:00:05.182Z,1.30
2018-02-08T16:02:31.488Z,1.30
2018-02-08T16:04:57.768Z,1.20
2018-02-08T16:07:24.793Z,1.20
2018-02-08T16:09:51.085Z,1.20
2018-02-08T16:12:17.410Z,1.20
2018-02-08T16:14:43.666Z,1.20
2018-02-08T16:17:09.934Z,1.10
2018-02-08T16:19:36.990Z,0.90
2018-02-08T16:22:03.321Z,0.90
2018-02-08T16:24:29.622Z,0.90
2018-02-08T16:26:55.891Z,0.70
2018-02-08T16:29:22.178Z,0.50
2018-02-08T16:31:48.449Z,0.50
2018-02-08T16:34:14.713Z,0.60
2018-02-08T16:36:40.952Z,0.60
2018-02-08T16:39:07.272Z,0.60
2018-02-08T16:41:33.524Z,0.40
2018-02-08T16:43:59.862Z,0.20
2018-02-08T16:46:26.112Z,0.00
2018-02-08T16:48:53.125Z,-0.10
2018-02-08T16:51:19.485Z,-0.20
2018-02-08T16:53:45.742Z,0.00
2018-02-08T16:56:12.006Z,-0.10
2018-02-08T16:58:38.268Z,0.00
2018-02-08T17:01:04.550Z,0.00
2018-02-08T17:03:30.834Z,0.10
2018-02-08T17:05:57.887Z,0.30
2018-02-08T17:08:24.983Z,0.40
2018-02-08T17:10:51.225Z,0.40
2018-02-08T17:13:17.539Z,0.40
2018-02-08T17:15:43.826Z,0.30
2018-02-08T17:18:10.919Z,0.20
2018-02-08T17:20:37.207Z,0.10
2018-02-08T17:23:04.210Z,0.10
2018-02-08T17:25:30.520Z,0.10
2018-02-08T17:27:56.965Z,0.10
2018-02-08T17:30:23.209Z,0.00
2018-02-08T17:32:49.495Z,0.00
2018-02-08T17:35:15.774Z,0.00
2018-02-08T17:37:42.041Z,-0.10
2018-02-08T17:40:13.110Z,0.20
2018-02-08T17:42:39.547Z,0.20
2018-02-08T17:45:05.965Z,0.10
2018-02-08T17:47:32.210Z,0.00
2018-02-08T17:49:58.499Z,0.10
2018-02-08T17:52:25.540Z,0.00
2018-02-08T17:54:51.936Z,-0.10
2018-02-08T17:57:18.219Z,-0.10
2018-02-08T17:59:45.265Z,-0.10
2018-02-08T18:02:11.535Z,-0.10
2018-02-08T18:04:37.867Z,0.00
2018-02-08T18:07:04.221Z,-0.10
2018-02-08T18:09:30.646Z,-0.40
2018-02-08T18:11:57.051Z,-0.40
2018-02-08T18:14:23.379Z,-0.40
2018-02-08T18:16:49.719Z,-0.50
2018-02-08T18:19:16.047Z,-0.50
2018-02-08T18:21:42.320Z,-0.50
2018-02-08T18:24:08.783Z,-0.60
2018-02-08T18:26:36.338Z,-0.60
2018-02-08T18:29:03.426Z,-0.70
2018-02-08T18:31:29.906Z,-0.70
2018-02-08T18:33:56.286Z,-0.80
2018-02-08T18:36:22.628Z,-0.90
2018-02-08T18:38:48.896Z,-1.00
2018-02-08T18:41:15.246Z,-1.00
2018-02-08T18:43:41.566Z,-1.00
2018-02-08T18:46:08.651Z,-1.10
2018-02-08T18:48:34.985Z,-1.10
2018-02-08T18:51:01.329Z,-1.20
2018-02-08T18:53:27.662Z,-1.20
2018-02-08T18:55:53.973Z,-1.20
2018-02-08T18:58:20.235Z,-1.20
2018-02-08T19:00:46.579Z,-1.20
2018-02-08T19:03:13.041Z,-1.30
2018-02-08T19:05:39.295Z,-1.20
2018-02-08T19:08:06.365Z,-1.30
2018-02-08T19:10:32.693Z,-1.30
2018-02-08T19:12:59.105Z,-1.30
2018-02-08T19:15:26.160Z,-1.40
2018-02-08T19:17:52.492Z,-1.40
2018-02-08T19:20:18.880Z,-1.40
2018-02-08T19:22:45.206Z,-1.50
2018-02-08T19:25:11.620Z,-1.50
2018-02-08T19:27:37.904Z,-1.50
2018-02-08T19:30:05.004Z,-1.60
2018-02-08T19:32:32.010Z,-1.60
2018-02-08T19:34:59.069Z,-1.60
2018-02-08T19:37:25.523Z,-1.60
2018-02-08T19:39:51.789Z,-1.50
2018-02-08T19:42:18.109Z,-1.40
2018-02-08T19:44:44.385Z,-1.40
2018-02-08T19:47:11.445Z,-1.10
2018-02-08T19:49:37.753Z,-1.20
2018-02-08T19:52:04.891Z,-1.00
2018-02-08T19:54:31.944Z,-1.10
2018-02-08T19:56:58.968Z,-0.90
2018-02-08T19:59:25.296Z,-1.00
2018-02-08T20:01:51.568Z,-0.80
2018-02-08T20:04:18.592Z,-0.60
2018-02-08T20:06:45.040Z,-0.60
2018-02-08T20:09:12.078Z,-0.40
2018-02-08T20:11:38.416Z,-0.50
2018-02-08T20:14:11.769Z,-0.60
2018-02-08T20:16:38.141Z,-0.60
2018-02-08T20:19:04.527Z,-0.70
2018-02-08T20:21:30.859Z,-0.70
2018-02-08T20:23:57.216Z,-0.70
2018-02-08T20:26:23.492Z,-0.60
2018-02-08T20:28:49.771Z,-0.50
2018-02-08T20:31:16.150Z,-0.60
2018-02-08T20:33:42.454Z,-0.60
2018-02-08T20:36:08.721Z,-0.70
2018-02-08T20:38:35.024Z,-0.80
2018-02-08T20:41:02.098Z,-1.10
2018-02-08T20:43:28.394Z,-1.10
2018-02-08T20:45:54.692Z,-1.10
2018-02-08T20:48:20.977Z,-1.10
2018-02-08T20:50:47.253Z,-1.20
2018-02-08T20:53:13.585Z,-1.20
2018-02-08T20:55:39.880Z,-1.20
2018-02-08T20:58:06.242Z,-1.10
2018-02-08T21:00:33.292Z,-1.10
2018-02-08T21:02:59.592Z,-1.20
2018-02-08T21:05:25.877Z,-1.10
2018-02-08T21:07:52.143Z,-1.00
2018-02-08T21:10:18.443Z,-0.90
2018-02-08T21:12:44.685Z,-0.90
2018-02-08T21:15:11.715Z,-0.70
2018-02-08T21:17:38.061Z,-0.70
2018-02-08T21:20:05.075Z,-0.50
2018-02-08T21:22:31.372Z,-0.60
2018-02-08T21:24:58.327Z,-0.70
2018-02-08T21:27:24.600Z,-0.70
2018-02-08T21:29:50.910Z,-0.80
2018-02-08T21:32:17.200Z,-1.00
2018-02-08T21:34:43.472Z,-1.10
2018-02-08T21:37:09.787Z,-1.20
2018-02-08T21:39:36.092Z,-1.20
2018-02-08T21:42:02.430Z,-1.30
2018-02-08T21:44:28.732Z,-1.40
2018-02-08T21:46:55.769Z,-1.60
2018-02-08T21:49:22.068Z,-1.60
2018-02-08T21:51:48.403Z,-1.70
2018-02-08T21:54:14.673Z,-1.70
2018-02-08T21:56:41.693Z,-1.80
2018-02-08T21:59:07.956Z,-1.80
2018-02-08T22:01:34.977Z,-1.80
2018-02-08T22:04:01.284Z,-1.80
2018-02-08T22:06:27.563Z,-1.80
2018-02-08T22:08:54.618Z,-1.90
2018-02-08T22:11:21.641Z,-1.90
2018-02-08T22:13:47.966Z,-1.90
2018-02-08T22:16:14.256Z,-2.00
2018-02-08T22:18:40.597Z,-2.10
2018-02-08T22:21:06.911Z,-2.10
2018-02-08T22:23:33.212Z,-2.30
2018-02-08T22:26:00.208Z,-2.40
2018-02-08T22:28:26.478Z,-2.40
2018-02-08T22:30:53.473Z,-2.40
2018-02-08T22:33:19.713Z,-2.40
2018-02-08T22:35:45.954Z,-2.40
2018-02-08T22:38:12.273Z,-2.40
2018-02-08T22:40:38.541Z,-2.40
2018-02-08T22:43:04.891Z,-2.30
2018-02-08T22:45:31.915Z,-2.20
2018-02-08T22:47:59.729Z,-2.10
2018-02-08T22:50:26.071Z,-2.10
2018-02-08T22:52:52.321Z,-2.00
2018-02-08T22:55:18.595Z,-2.20
2018-02-08T22:57:52.709Z,-2.00
2018-02-08T23:00:19.837Z,-1.90
2018-02-08T23:02:46.085Z,-1.90
2018-02-08T23:05:13.260Z,-1.80
2018-02-08T23:07:40.269Z,-2.00
2018-02-08T23:10:06.567Z,-2.00
2018-02-08T23:12:32.845Z,-1.90
2018-02-08T23:14:59.867Z,-2.00
2018-02-08T23:17:26.157Z,-2.00
2018-02-08T23:19:52.435Z,-2.00
2018-02-08T23:22:18.679Z,-2.00
2018-02-08T23:24:45.704Z,-2.00
2018-02-08T23:27:12.048Z,-2.10
2018-02-08T23:29:39.082Z,-2.00
2018-02-08T23:32:05.416Z,-2.00
2018-02-08T23:34:31.751Z,-1.90
2018-02-08T23:36:58.057Z,-1.90
2018-02-08T23:39:24.414Z,-1.90
2018-02-08T23:41:50.783Z,-1.90
2018-02-08T23:44:17.060Z,-2.00
2018-02-08T23:46:43.336Z,-2.00
2018-02-08T23:49:09.640Z,-2.00
2018-02-08T23:51:35.936Z,-2.10
2018-02-08T23:54:02.291Z,-2.10
2018-02-08T23:56:28.599Z,-2.10
2018-02-08T23:58:54.891Z,-2.00
